Jervois, Australia
Current Conditions -  °F | °C
As of 10:30 AM on Saturday 25 Oct 2014 (Local Time) from YBAS Reporting Station
Clear Clear  
Wind Chill: 95°   Ceiling: Unl
Heat Index: 95°   Visibility: 6mi
Dew Point: 27°   Wind: 10mph
Humidity: 9%   Direction: 20°NNE
Pressure: 30.09"   Gusts: NA
Location:  22.95°S, 136.13°E
Report Text: YBAS 250130Z 02009KT CAVOK 35/M03 Q1019
Loading
Personal Weather Stations






























Interactive Weather Map
Tropical Storm Tracking
New forecast layout! Learn more

10-Day Weather Forecast

Advertisements
Track Severe Weather on mobile